createdAt,value
2018-07-17T00:03:13.439Z,16.88
2018-07-17T00:13:10.706Z,16.98
2018-07-17T00:23:08.463Z,16.69
2018-07-17T00:33:06.136Z,16.88
2018-07-17T00:43:03.306Z,17.08
2018-07-17T00:52:59.783Z,16.98
2018-07-17T01:02:55.952Z,16.59
2018-07-17T01:12:51.433Z,16.39
2018-07-17T01:22:48.574Z,16.20
2018-07-17T01:32:43.400Z,15.90
2018-07-17T01:42:40.200Z,16.10
2018-07-17T01:52:36.610Z,16.30
2018-07-17T02:02:31.623Z,16.10
2018-07-17T02:12:27.707Z,16.69
2018-07-17T02:22:25.310Z,16.88
2018-07-17T02:32:24.224Z,16.69
2018-07-17T02:42:21.230Z,16.88
2018-07-17T02:52:19.482Z,16.98
2018-07-17T03:02:17.780Z,16.98
2018-07-17T03:12:14.606Z,16.79
2018-07-17T03:22:13.331Z,16.79
2018-07-17T03:32:10.622Z,16.79
2018-07-17T03:42:09.234Z,16.88
2018-07-17T03:52:08.578Z,16.88
2018-07-17T04:02:05.092Z,17.08
2018-07-17T04:12:01.288Z,17.37
2018-07-17T04:22:00.377Z,17.27
2018-07-17T04:31:57.642Z,17.27
2018-07-17T04:41:54.700Z,17.57
2018-07-17T04:51:52.334Z,17.67
2018-07-17T05:01:50.729Z,17.86
2018-07-17T05:11:45.950Z,18.16
2018-07-17T05:21:44.032Z,18.35
2018-07-17T05:31:41.864Z,18.45
2018-07-17T05:41:35.245Z,18.45
2018-07-17T05:51:34.773Z,19.03
2018-07-17T06:01:31.847Z,19.72
2018-07-17T06:11:30.570Z,20.31
2018-07-17T06:21:20.494Z,20.40
2018-07-17T06:31:16.806Z,20.31
2018-07-17T06:41:14.418Z,20.21
2018-07-17T06:51:12.839Z,20.21
2018-07-17T07:01:09.274Z,20.31
2018-07-17T07:11:06.829Z,20.50
2018-07-17T07:21:00.548Z,20.50
2018-07-17T07:30:56.257Z,20.40
2018-07-17T07:40:54.706Z,20.40
2018-07-17T07:50:51.762Z,20.80
2018-07-17T08:00:47.172Z,20.99
2018-07-17T08:10:44.779Z,20.99
2018-07-17T08:20:42.330Z,21.19
2018-07-17T08:30:38.805Z,21.28
2018-07-17T08:40:36.914Z,21.38
2018-07-17T08:50:35.647Z,21.68
2018-07-17T09:00:33.421Z,21.67
2018-07-17T09:10:27.863Z,21.97
2018-07-17T09:20:26.816Z,22.26
2018-07-17T09:30:22.672Z,22.56
2018-07-17T09:40:21.806Z,22.85
2018-07-17T09:50:18.766Z,23.14
2018-07-17T10:00:12.161Z,22.75
2018-07-17T10:10:10.489Z,22.95
2018-07-17T10:20:08.758Z,22.85
2018-07-17T10:30:04.231Z,22.85
2018-07-17T10:39:57.562Z,22.56
2018-07-17T10:49:55.636Z,22.26
2018-07-17T10:59:53.857Z,22.07
2018-07-17T11:09:48.431Z,21.87
2018-07-17T11:19:44.718Z,21.77
2018-07-17T11:29:41.762Z,21.58
2018-07-17T11:39:39.697Z,21.48
2018-07-17T11:49:36.775Z,21.38
2018-07-17T11:59:32.821Z,21.48
2018-07-17T12:09:24.838Z,21.58
2018-07-17T12:19:22.826Z,21.58
2018-07-17T12:29:20.303Z,21.68
2018-07-17T12:39:16.107Z,21.87
2018-07-17T12:49:15.596Z,22.46
2018-07-17T12:59:14.808Z,23.24
2018-07-17T13:09:12.528Z,23.24
2018-07-17T13:19:08.259Z,23.53
2018-07-17T13:29:07.267Z,23.73
2018-07-17T13:38:48.042Z,25.19
2018-07-17T13:48:33.627Z,26.27
2018-07-17T13:58:06.338Z,27.64
2018-07-17T14:07:46.433Z,28.91
2018-07-17T14:17:26.593Z,29.59
2018-07-17T14:27:04.488Z,27.15
2018-07-17T14:36:46.414Z,28.42
2018-07-17T14:46:16.876Z,28.72
2018-07-17T14:55:59.845Z,28.42
2018-07-17T15:05:28.207Z,28.42
2018-07-17T15:15:02.972Z,27.44
2018-07-17T15:24:36.615Z,28.32
2018-07-17T15:34:14.824Z,27.54
2018-07-17T15:43:51.881Z,27.05
2018-07-17T15:53:26.104Z,26.08
2018-07-17T16:03:01.654Z,25.88
2018-07-17T16:12:38.555Z,25.68
2018-07-17T16:22:16.173Z,25.78
2018-07-17T16:31:51.756Z,25.00
2018-07-17T16:41:27.868Z,24.71
2018-07-17T16:51:04.756Z,24.41
2018-07-17T17:00:41.282Z,24.02
2018-07-17T17:10:17.764Z,23.63
2018-07-17T17:20:13.598Z,23.53
2018-07-17T17:29:50.821Z,23.44
2018-07-17T17:39:46.563Z,22.85
2018-07-17T17:49:42.630Z,22.56
2018-07-17T17:59:36.977Z,22.26
2018-07-17T18:09:33.650Z,21.28
2018-07-17T18:19:31.522Z,20.70
2018-07-17T18:29:27.667Z,20.11
2018-07-17T18:39:23.377Z,19.91
2018-07-17T18:49:19.249Z,19.23
2018-07-17T18:59:12.922Z,18.74
2018-07-17T19:09:05.356Z,18.45
2018-07-17T19:18:59.274Z,17.96
2018-07-17T19:28:55.609Z,17.57
2018-07-17T19:38:48.684Z,17.27
2018-07-17T19:48:46.073Z,16.98
2018-07-17T19:58:43.518Z,16.79
2018-07-17T20:08:39.187Z,16.59
2018-07-17T20:18:31.998Z,16.49
2018-07-17T20:28:29.461Z,16.20
2018-07-17T20:38:25.717Z,16.10
2018-07-17T20:48:23.270Z,15.81
2018-07-17T20:58:18.379Z,15.61
2018-07-17T21:08:15.682Z,15.51
2018-07-17T21:18:11.982Z,15.51
2018-07-17T21:28:06.638Z,15.42
2018-07-17T21:38:02.629Z,15.22
2018-07-17T21:47:57.818Z,15.02
2018-07-17T21:57:55.997Z,15.02
2018-07-17T22:07:53.317Z,14.93
2018-07-17T22:17:51.732Z,14.73
2018-07-17T22:27:50.228Z,14.73
2018-07-17T22:37:45.227Z,14.63
2018-07-17T22:47:43.221Z,14.44
2018-07-17T22:57:40.119Z,14.34
2018-07-17T23:07:36.379Z,14.24
2018-07-17T23:17:33.272Z,14.15
2018-07-17T23:27:31.180Z,14.05
2018-07-17T23:37:28.555Z,14.05
2018-07-17T23:47:21.777Z,13.85
2018-07-17T23:57:16.687Z,13.75
